^^
Grace C. Lehan Memorial Weather Station Historical Data
Daily Summary for January 4, 2021 Units:  Metric    English   Both
Daily Weekly Monthly Yearly
  High: Low: Average:
Temperature: 24.8 °C 15.7 °C 20.4 °C
Dew Point: 18.2 °C 14.3 °C 16.5 °C
Humidity: 93% 61% 79%
Wind Speed: 1.6km/h 0km/h 0km/h
Wind Gust: 6.4km/h - -
Wind- - ENE
Pressure: 1020.5 hPa 1017.8 hPa -
Precipitation: 0 mm    
 
 
Tabular Data for January 4, 2021
Time Temperature Dew Point Pressure Wind Wind Speed Wind Gust Humidity Rainfall Rate (Hourly) solar
00:00 18.2 °C 14.9 °C 1017.8 hPa Calm     81% 0 mm 0 W/m2
00:09 18.2 °C 14.8 °C 1017.8 hPa Calm     81% 0 mm 0 W/m2
00:14 18.2 °C 15 °C 1017.8 hPa Calm     81.9% 0 mm 0 W/m2
00:19 18.1 °C 15 °C 1017.8 hPa Calm     82% 0 mm 0 W/m2
00:24 18.1 °C 14.9 °C 1017.8 hPa Calm     82% 0 mm 0 W/m2
00:29 18 °C 14.9 °C 1017.8 hPa Calm     82% 0 mm 0 W/m2
00:34 18 °C 15.1 °C 1017.8 hPa Calm     82.8% 0 mm 0 W/m2
00:39 17.9 °C 15 °C 1017.8 hPa Calm     83% 0 mm 0 W/m2
00:44 17.9 °C 14.9 °C 1017.8 hPa Calm     83% 0 mm 0 W/m2
00:49 17.8 °C 15 °C 1017.8 hPa Calm     83.4% 0 mm 0 W/m2
00:54 17.8 °C 15.1 °C 1017.8 hPa Calm     84% 0 mm 0 W/m2
00:59 17.8 °C 15.1 °C 1017.8 hPa Calm     84% 0 mm 0 W/m2
01:04 17.7 °C 15 °C 1017.8 hPa Calm     84% 0 mm 0 W/m2
01:09 17.7 °C 15 °C 1017.8 hPa Calm     84.3% 0 mm 0 W/m2
01:14 17.7 °C 15.1 °C 1017.8 hPa Calm     85% 0 mm 0 W/m2
01:19 17.6 °C 15.1 °C 1017.8 hPa Calm     85% 0 mm 0 W/m2
01:24 17.6 °C 15.1 °C 1017.8 hPa Calm     85% 0 mm 0 W/m2
01:29 17.6 °C 15 °C 1017.8 hPa Calm     85% 0 mm 0 W/m2
01:34 17.5 °C 14.9 °C 1017.8 hPa Calm     85% 0 mm 0 W/m2
01:39 17.4 °C 14.9 °C 1017.8 hPa Calm     85% 0 mm 0 W/m2
01:44 17.4 °C 15 °C 1017.8 hPa Calm     85.9% 0 mm 0 W/m2
01:49 17.3 °C 15 °C 1017.8 hPa Calm     86% 0 mm 0 W/m2
01:54 17.3 °C 14.9 °C 1017.8 hPa Calm     86% 0 mm 0 W/m2
01:59 17.3 °C 14.9 °C 1017.8 hPa Calm     86% 0 mm 0 W/m2
02:04 17.2 °C 15 °C 1017.8 hPa Calm     86.9% 0 mm 0 W/m2
02:09 17.1 °C 14.9 °C 1017.8 hPa Calm     87% 0 mm 0 W/m2
02:14 17.1 °C 14.9 °C 1017.8 hPa Calm     87% 0 mm 0 W/m2
02:19 17.1 °C 14.9 °C 1017.8 hPa Calm     87% 0 mm 0 W/m2
02:24 17 °C 14.8 °C 1017.8 hPa Calm     87% 0 mm 0 W/m2
02:29 17 °C 14.8 °C 1017.8 hPa Calm     87% 0 mm 0 W/m2
02:34 16.9 °C 14.8 °C 1017.8 hPa Calm     87% 0 mm 0 W/m2
02:39 16.9 °C 14.9 °C 1018.2 hPa Calm     87.6% 0 mm 0 W/m2
02:44 16.9 °C 14.9 °C 1018.2 hPa Calm     88% 0 mm 0 W/m2
02:49 16.8 °C 14.8 °C 1017.8 hPa Calm     88% 0 mm 0 W/m2
02:54 16.8 °C 14.8 °C 1017.8 hPa Calm     88% 0 mm 0 W/m2
02:59 16.8 °C 14.8 °C 1018.2 hPa Calm     88% 0 mm 0 W/m2
03:04 16.7 °C 14.7 °C 1018.2 hPa Calm     88% 0 mm 0 W/m2
03:09 16.7 °C 14.7 °C 1017.8 hPa Calm     88% 0 mm 0 W/m2
03:14 16.7 °C 14.8 °C 1018.2 hPa Calm     88.6% 0 mm 0 W/m2
03:19 16.6 °C 14.8 °C 1018.2 hPa Calm     89% 0 mm 0 W/m2
03:24 16.6 °C 14.7 °C 1018.2 hPa Calm     89% 0 mm 0 W/m2
03:29 16.6 °C 14.7 °C 1017.8 hPa Calm     89% 0 mm 0 W/m2
03:34 16.5 °C 14.7 °C 1017.8 hPa Calm     89% 0 mm 0 W/m2
03:39 16.4 °C 14.7 °C 1018.2 hPa Calm     89% 0 mm 0 W/m2
03:44 16.4 °C 14.6 °C 1018.2 hPa Calm     89% 0 mm 0 W/m2
03:49 16.4 °C 14.7 °C 1017.8 hPa Calm     89.6% 0 mm 0 W/m2
03:54 16.3 °C 14.7 °C 1017.8 hPa Calm     90% 0 mm 0 W/m2
03:59 16.3 °C 14.7 °C 1017.8 hPa Calm     90% 0 mm 0 W/m2
04:00 16.3 °C 14.7 °C 1017.8 hPa Calm     90% 0 mm 0 W/m2
04:09 16.3 °C 14.6 °C 1017.8 hPa Calm     90% 0 mm 0 W/m2
04:14 16.2 °C 14.6 °C 1018.2 hPa Calm     90% 0 mm 0 W/m2
04:19 16.2 °C 14.6 °C 1018.2 hPa Calm     90% 0 mm 0 W/m2
04:24 16.2 °C 14.6 °C 1018.2 hPa Calm     90% 0 mm 0 W/m2
04:29 16.2 °C 14.7 °C 1018.2 hPa Calm     90.7% 0 mm 0 W/m2
04:34 16.2 °C 14.7 °C 1018.2 hPa Calm     91% 0 mm 0 W/m2
04:39 16.1 °C 14.7 °C 1018.2 hPa Calm     91% 0 mm 0 W/m2
04:44 16.1 °C 14.6 °C 1018.2 hPa Calm     91% 0 mm 0 W/m2
04:49 16.1 °C 14.6 °C 1018.2 hPa Calm     91% 0 mm 0 W/m2
04:54 16.1 °C 14.6 °C 1018.2 hPa Calm     91% 0 mm 0 W/m2
04:59 16.1 °C 14.6 °C 1018.5 hPa Calm     91% 0 mm 0 W/m2
05:04 16 °C 14.6 °C 1018.5 hPa Calm     91% 0 mm 0 W/m2
05:09 16 °C 14.5 °C 1018.5 hPa Calm     91% 0 mm 0 W/m2
05:14 15.9 °C 14.5 °C 1018.5 hPa Calm     91% 0 mm 0 W/m2
05:19 15.9 °C 14.5 °C 1018.5 hPa Calm     91% 0 mm 0 W/m2
05:24 15.9 °C 14.5 °C 1018.5 hPa Calm     91% 0 mm 0 W/m2
05:29 15.9 °C 14.4 °C 1018.5 hPa Calm     91% 0 mm 0 W/m2
05:34 15.9 °C 14.4 °C 1018.5 hPa Calm     91% 0 mm 0 W/m2
05:39 15.8 °C 14.4 °C 1018.5 hPa Calm     91% 0 mm 0 W/m2
05:44 15.8 °C 14.3 °C 1018.5 hPa Calm     91% 0 mm 0 W/m2
05:49 15.8 °C 14.5 °C 1018.5 hPa Calm     92% 0 mm 0 W/m2
05:54 15.8 °C 14.5 °C 1018.8 hPa Calm     92% 0 mm 0 W/m2
05:59 15.7 °C 14.4 °C 1018.8 hPa Calm     92% 0 mm 0 W/m2
06:04 15.7 °C 14.4 °C 1018.8 hPa Calm     92% 0 mm 5 W/m2
06:09 15.7 °C 14.4 °C 1018.8 hPa Calm     92% 0 mm 7 W/m2
06:14 15.7 °C 14.4 °C 1018.8 hPa Calm     92% 0 mm 7 W/m2
06:19 15.7 °C 14.4 °C 1018.8 hPa Calm     92% 0 mm 7 W/m2
06:24 15.7 °C 14.4 °C 1018.8 hPa Calm     92% 0 mm 12 W/m2
06:29 15.7 °C 14.4 °C 1018.8 hPa Calm     92.1% 0 mm 16 W/m2
06:34 15.8 °C 14.7 °C 1018.8 hPa Calm     93% 0 mm 19 W/m2
06:39 15.8 °C 14.7 °C 1019.2 hPa Calm     93% 0 mm 23 W/m2
06:44 15.8 °C 14.7 °C 1019.2 hPa Calm     93% 0 mm 23 W/m2
06:49 15.8 °C 14.7 °C 1018.8 hPa Calm     93% 0 mm 28 W/m2
06:54 15.9 °C 14.8 °C 1018.8 hPa Calm     93% 0 mm 33 W/m2
06:59 15.9 °C 14.8 °C 1019.2 hPa Calm     93% 0 mm 40 W/m2
07:04 16.1 °C 14.9 °C 1019.2 hPa Calm     93% 0 mm 44 W/m2
07:09 16.1 °C 15 °C 1019.2 hPa Calm     93% 0 mm 58 W/m2
07:14 16.2 °C 15.1 °C 1019.2 hPa Calm     93% 0 mm 69 W/m2
07:19 16.3 °C 15.2 °C 1018.8 hPa Calm     93% 0 mm 69 W/m2
07:24 16.4 °C 15.3 °C 1019.2 hPa Calm     93% 0 mm 62 W/m2
07:29 16.5 °C 15.4 °C 1019.2 hPa Calm     93% 0 mm 91 W/m2
07:34 16.6 °C 15.5 °C 1019.2 hPa Calm     93% 0 mm 102 W/m2
07:39 16.7 °C 15.6 °C 1019.2 hPa Calm     93% 0 mm 158 W/m2
07:44 16.9 °C 15.8 °C 1019.5 hPa Calm     93% 0 mm 197 W/m2
07:49 17.2 °C 16.1 °C 1019.5 hPa Calm     93% 0 mm 241 W/m2
07:54 17.4 °C 16.1 °C 1019.5 hPa Calm     91.5% 0 mm 302 W/m2
07:59 17.8 °C 16.3 °C 1019.5 hPa Calm     91.2% 0 mm 260 W/m2
08:00 17.9 °C 16.4 °C 1019.5 hPa Calm     91% 0 mm 174 W/m2
08:09 18.6 °C 16.9 °C 1019.9 hPa Calm     89.5% 0 mm 278 W/m2
08:14 19 °C 16.8 °C 1019.9 hPa Calm     87.1% 0 mm 239 W/m2
08:19 19.3 °C 16.7 °C 1019.9 hPa Calm     85.3% 0 mm 236 W/m2
08:24 19.6 °C 16.8 °C 1019.9 hPa Calm     84% 0 mm 236 W/m2
08:29 19.9 °C 16.8 °C 1019.9 hPa Calm     82.7% 0 mm 236 W/m2
08:34 20.1 °C 16.7 °C 1020.2 hPa Calm   1.6 km/h 81.1% 0 mm 202 W/m2
08:39 20.2 °C 16.6 °C 1020.2 hPa Calm   1.6 km/h 79.9% 0 mm 181 W/m2
08:44 20.2 °C 16.4 °C 1020.2 hPa Calm   1.6 km/h 79% 0 mm 174 W/m2
08:49 20.3 °C 16.5 °C 1020.2 hPa Calm   1.6 km/h 79% 0 mm 162 W/m2
08:54 20.3 °C 16.4 °C 1020.2 hPa Calm   1.6 km/h 78.5% 0 mm 169 W/m2
08:59 20.3 °C 16.7 °C 1019.9 hPa Calm   1.6 km/h 79.4% 0 mm 172 W/m2
09:04 20.4 °C 16.6 °C 1019.9 hPa Calm   1.6 km/h 79% 0 mm 197 W/m2
09:09 20.4 °C 16.4 °C 1019.9 hPa Calm     78% 0 mm 199 W/m2
09:14 20.4 °C 16.3 °C 1019.9 hPa Calm     77.3% 0 mm 186 W/m2
09:19 20.4 °C 16.6 °C 1019.9 hPa Calm     78.6% 0 mm 176 W/m2
09:24 20.5 °C 16.6 °C 1019.9 hPa Calm     78.3% 0 mm 190 W/m2
09:29 20.6 °C 16.9 °C 1019.9 hPa Calm     79.2% 0 mm 211 W/m2
09:34 20.7 °C 16.9 °C 1019.9 hPa Calm     78.7% 0 mm 229 W/m2
09:39 20.9 °C 17.1 °C 1019.9 hPa Calm   3.2 km/h 78.8% 0 mm 234 W/m2
09:44 21 °C 16.7 °C 1019.9 hPa Calm   3.2 km/h 76.3% 0 mm 265 W/m2
09:49 21.1 °C 17.1 °C 1019.9 hPa NNW 0.5 km/h 4.8 km/h 77.5% 0 mm 283 W/m2
09:54 21.2 °C 16.7 °C 1019.9 hPa NNW 0.3 km/h 4.8 km/h 75.4% 0 mm 301 W/m2
09:59 21.3 °C 16.6 °C 1019.9 hPa NNE 1.1 km/h 4.8 km/h 74.6% 0 mm 281 W/m2
10:04 21.4 °C 16.7 °C 1019.9 hPa Calm   4.8 km/h 74.8% 0 mm 241 W/m2
10:09 21.4 °C 16.7 °C 1019.9 hPa Calm     74.3% 0 mm 225 W/m2
10:14 21.5 °C 16.9 °C 1020.2 hPa Calm     75.2% 0 mm 211 W/m2
10:19 21.6 °C 17.1 °C 1020.2 hPa Calm     75.7% 0 mm 220 W/m2
10:24 21.7 °C 16.9 °C 1020.2 hPa NNE 0.5 km/h 6.4 km/h 74.5% 0 mm 220 W/m2
10:29 21.7 °C 16.7 °C 1020.2 hPa NNE 0.2 km/h 6.4 km/h 73.2% 0 mm 214 W/m2
10:34 21.7 °C 16.7 °C 1020.2 hPa NNE 0.2 km/h 6.4 km/h 73.3% 0 mm 204 W/m2
10:39 21.8 °C 17 °C 1020.2 hPa Calm   4.8 km/h 74.2% 0 mm 206 W/m2
10:44 21.8 °C 17.1 °C 1020.2 hPa Calm   4.8 km/h 74.2% 0 mm 214 W/m2
10:49 21.9 °C 16.9 °C 1020.2 hPa NNE 0.2 km/h 4.8 km/h 73.4% 0 mm 214 W/m2
10:54 21.9 °C 16.9 °C 1020.2 hPa NNE 0.3 km/h 4.8 km/h 73.5% 0 mm 223 W/m2
10:59 21.8 °C 17 °C 1020.2 hPa Calm   4.8 km/h 74.1% 0 mm 227 W/m2
11:04 21.9 °C 17.2 °C 1020.5 hPa NNE 0.2 km/h 4.8 km/h 74.8% 0 mm 229 W/m2
11:09 21.9 °C 16.8 °C 1020.5 hPa Calm   3.2 km/h 72.9% 0 mm 230 W/m2
11:14 21.9 °C 16.6 °C 1020.5 hPa Calm   3.2 km/h 72% 0 mm 223 W/m2
11:19 21.9 °C 16.8 °C 1020.5 hPa Calm   3.2 km/h 72.9% 0 mm 248 W/m2
11:24 21.9 °C 16.8 °C 1020.5 hPa Calm   3.2 km/h 72.9% 0 mm 274 W/m2
11:29 22 °C 16.9 °C 1020.5 hPa Calm   3.2 km/h 73% 0 mm 285 W/m2
11:34 22.1 °C 17.1 °C 1020.5 hPa Calm   3.2 km/h 73% 0 mm 287 W/m2
11:39 22.2 °C 17.1 °C 1020.5 hPa Calm     72.7% 0 mm 274 W/m2
11:44 22.3 °C 17 °C 1020.5 hPa Calm     71.9% 0 mm 283 W/m2
11:49 22.4 °C 17.3 °C 1020.2 hPa Calm     72.5% 0 mm 278 W/m2
11:54 22.6 °C 17.1 °C 1020.2 hPa NNE 0.2 km/h 3.2 km/h 71.2% 0 mm 272 W/m2
11:59 22.6 °C 17.3 °C 1020.2 hPa Calm   3.2 km/h 71.9% 0 mm 267 W/m2
12:09 22.8 °C 17.4 °C 1020.2 hPa Calm     71.5% 0 mm 255 W/m2
12:14 22.8 °C 17.3 °C 1020.2 hPa Calm     70.9% 0 mm 246 W/m2
12:19 22.9 °C 17.4 °C 1020.2 hPa Calm   1.6 km/h 71.2% 0 mm 244 W/m2
12:24 22.9 °C 17.1 °C 1020.2 hPa NNE 0.2 km/h 3.2 km/h 69.9% 0 mm 258 W/m2
12:29 22.9 °C 17.6 °C 1020.2 hPa Calm   3.2 km/h 71.7% 0 mm 269 W/m2
12:34 23.1 °C 17.7 °C 1020.2 hPa Calm   3.2 km/h 71.7% 0 mm 278 W/m2
12:39 23.2 °C 17.5 °C 1020.2 hPa NNE 0.6 km/h 4.8 km/h 70.5% 0 mm 278 W/m2
12:44 23.2 °C 17.3 °C 1019.9 hPa NNE 0.5 km/h 4.8 km/h 69.1% 0 mm 269 W/m2
12:49 23.3 °C 17.4 °C 1019.9 hPa NNE 0.3 km/h 4.8 km/h 69.3% 0 mm 271 W/m2
12:54 23.4 °C 17.3 °C 1019.9 hPa NNE 0.2 km/h 4.8 km/h 68.7% 0 mm 287 W/m2
12:59 23.5 °C 17.4 °C 1019.9 hPa Calm   4.8 km/h 68.8% 0 mm 299 W/m2
13:04 23.6 °C 17.8 °C 1019.9 hPa Calm   4.8 km/h 70.2% 0 mm 380 W/m2
13:09 23.7 °C 17.9 °C 1019.9 hPa NNE 1.6 km/h 4.8 km/h 69.9% 0 mm 390 W/m2
13:14 23.8 °C 17.6 °C 1019.9 hPa Calm   4.8 km/h 68.1% 0 mm 422 W/m2
13:19 23.9 °C 17.7 °C 1019.9 hPa Calm   4.8 km/h 68.3% 0 mm 445 W/m2
13:24 24.1 °C 17.9 °C 1019.9 hPa Calm   4.8 km/h 68.3% 0 mm 439 W/m2
13:29 24.3 °C 17.8 °C 1019.9 hPa NNE 0.2 km/h 4.8 km/h 66.9% 0 mm 431 W/m2
13:34 24.3 °C 17.8 °C 1019.9 hPa Calm   4.8 km/h 66.7% 0 mm 396 W/m2
13:39 24.4 °C 17.8 °C 1020.2 hPa Calm     66.7% 0 mm 374 W/m2
13:44 24.6 °C 18.1 °C 1020.2 hPa Calm     67.4% 0 mm 399 W/m2
13:49 24.7 °C 17.8 °C 1020.2 hPa NNE 0.3 km/h 3.2 km/h 65.9% 0 mm 438 W/m2
13:54 24.7 °C 16.9 °C 1020.2 hPa NE 0.6 km/h 6.4 km/h 61.8% 0 mm 446 W/m2
13:59 24.8 °C 16.8 °C 1020.2 hPa NE 0.2 km/h 6.4 km/h 61% 0 mm 422 W/m2
14:04 24.8 °C 16.9 °C 1020.2 hPa NE 0.2 km/h 6.4 km/h 61.5% 0 mm 345 W/m2
14:09 24.7 °C 17.1 °C 1020.2 hPa NE 0.2 km/h 3.2 km/h 62.4% 0 mm 336 W/m2
14:14 24.7 °C 17.2 °C 1019.9 hPa NE 0.2 km/h 3.2 km/h 63% 0 mm 330 W/m2
14:19 24.7 °C 16.9 °C 1019.9 hPa NE 0.2 km/h 3.2 km/h 62% 0 mm 301 W/m2
14:24 24.7 °C 17.6 °C 1019.9 hPa Calm   3.2 km/h 64.3% 0 mm 272 W/m2
14:29 24.8 °C 17.7 °C 1020.2 hPa Calm   3.2 km/h 64.7% 0 mm 246 W/m2
14:34 24.7 °C 17.6 °C 1020.2 hPa Calm   3.2 km/h 64.4% 0 mm 232 W/m2
14:39 24.7 °C 17.8 °C 1020.2 hPa Calm     65.7% 0 mm 221 W/m2
14:44 24.7 °C 17.7 °C 1020.2 hPa Calm     65.2% 0 mm 209 W/m2
14:49 24.6 °C 17.9 °C 1020.2 hPa Calm     66.2% 0 mm 218 W/m2
14:54 24.5 °C 17.9 °C 1020.2 hPa Calm     66.6% 0 mm 216 W/m2
14:59 24.4 °C 17.8 °C 1020.2 hPa Calm     66.9% 0 mm 214 W/m2
15:04 24.3 °C 17.9 °C 1020.2 hPa Calm     67.4% 0 mm 221 W/m2
15:09 24.3 °C 17.9 °C 1020.2 hPa Calm   3.2 km/h 67.8% 0 mm 221 W/m2
15:14 24.2 °C 18 °C 1020.2 hPa Calm   3.2 km/h 68.3% 0 mm 197 W/m2
15:19 24.2 °C 18 °C 1019.9 hPa Calm   3.2 km/h 68.3% 0 mm 171 W/m2
15:24 24.2 °C 18.1 °C 1019.9 hPa Calm   3.2 km/h 69% 0 mm 162 W/m2
15:29 24.1 °C 18.1 °C 1019.9 hPa NE 0.2 km/h 3.2 km/h 69% 0 mm 162 W/m2
15:34 24.1 °C 17.9 °C 1019.9 hPa Calm   3.2 km/h 68.6% 0 mm 144 W/m2
15:39 24 °C 17.7 °C 1019.9 hPa NE 0.2 km/h 3.2 km/h 68% 0 mm 123 W/m2
15:44 23.9 °C 17.9 °C 1019.9 hPa Calm   3.2 km/h 68.9% 0 mm 130 W/m2
15:49 23.9 °C 17.8 °C 1019.5 hPa Calm   3.2 km/h 68.6% 0 mm 135 W/m2
15:54 23.8 °C 17.6 °C 1019.5 hPa Calm   3.2 km/h 68% 0 mm 132 W/m2
15:59 23.8 °C 17.8 °C 1019.5 hPa Calm   3.2 km/h 68.8% 0 mm 134 W/m2
16:04 23.8 °C 17.7 °C 1019.5 hPa Calm   3.2 km/h 68.5% 0 mm 149 W/m2
16:09 23.8 °C 17.4 °C 1019.5 hPa Calm     67.4% 0 mm 149 W/m2
16:14 23.9 °C 17.7 °C 1019.5 hPa Calm     68.5% 0 mm 144 W/m2
16:19 23.9 °C 18 °C 1019.5 hPa Calm     69.3% 0 mm 155 W/m2
16:24 23.9 °C 17.7 °C 1019.5 hPa Calm   1.6 km/h 68% 0 mm 169 W/m2
16:29 23.9 °C 17.7 °C 1019.5 hPa Calm   1.6 km/h 67.9% 0 mm 174 W/m2
16:34 23.9 °C 17.4 °C 1019.5 hPa Calm   1.6 km/h 67% 0 mm 181 W/m2
16:39 23.9 °C 17.6 °C 1019.5 hPa NE 0.2 km/h 3.2 km/h 68% 0 mm 181 W/m2
16:44 23.9 °C 17.6 °C 1019.5 hPa Calm   3.2 km/h 67.6% 0 mm 172 W/m2
16:49 23.9 °C 17.4 °C 1019.2 hPa NE 0.3 km/h 4.8 km/h 67.1% 0 mm 141 W/m2
16:54 23.8 °C 17.3 °C 1019.2 hPa Calm   4.8 km/h 67% 0 mm 128 W/m2
16:59 23.7 °C 17.2 °C 1019.2 hPa NE 0.2 km/h 4.8 km/h 67% 0 mm 113 W/m2
17:04 23.6 °C 17.3 °C 1019.2 hPa Calm   4.8 km/h 67.8% 0 mm 105 W/m2
17:09 23.5 °C 17.4 °C 1019.2 hPa Calm   1.6 km/h 68.5% 0 mm 107 W/m2
17:14 23.4 °C 17.6 °C 1019.2 hPa NE 0.2 km/h 4.8 km/h 69.4% 0 mm 118 W/m2
17:19 23.4 °C 17.4 °C 1019.2 hPa Calm   4.8 km/h 69.1% 0 mm 125 W/m2
17:24 23.3 °C 17.2 °C 1019.2 hPa ENE 0.6 km/h 6.4 km/h 68.3% 0 mm 125 W/m2
17:29 23.3 °C 17.2 °C 1019.2 hPa Calm   6.4 km/h 68.6% 0 mm 107 W/m2
17:34 23.2 °C 17.2 °C 1019.5 hPa Calm   6.4 km/h 69% 0 mm 98 W/m2
17:39 23.1 °C 17.1 °C 1019.5 hPa East 0.6 km/h 6.4 km/h 69% 0 mm 90 W/m2
17:44 23 °C 17.2 °C 1019.2 hPa East 0.5 km/h 6.4 km/h 69.6% 0 mm 90 W/m2
17:49 22.9 °C 17.2 °C 1019.2 hPa East 0.2 km/h 6.4 km/h 70.1% 0 mm 90 W/m2
17:54 22.8 °C 16.8 °C 1019.2 hPa Calm   6.4 km/h 69% 0 mm 91 W/m2
17:59 22.8 °C 16.8 °C 1019.2 hPa East 0.2 km/h 6.4 km/h 69% 0 mm 91 W/m2
18:04 22.8 °C 16.8 °C 1019.2 hPa East 0.6 km/h 6.4 km/h 69.2% 0 mm 86 W/m2
18:09 22.7 °C 17 °C 1018.8 hPa East 0.2 km/h 4.8 km/h 70% 0 mm 81 W/m2
18:14 22.7 °C 16.7 °C 1018.8 hPa Calm   4.8 km/h 69% 0 mm 86 W/m2
18:19 22.7 °C 16.7 °C 1018.8 hPa Calm   4.8 km/h 69% 0 mm 86 W/m2
18:24 22.7 °C 16.7 °C 1018.8 hPa Calm   4.8 km/h 69% 0 mm 70 W/m2
18:29 22.7 °C 16.7 °C 1018.8 hPa Calm   4.8 km/h 69% 0 mm 62 W/m2
18:34 22.7 °C 16.7 °C 1018.8 hPa Calm   4.8 km/h 69.2% 0 mm 62 W/m2
18:39 22.6 °C 16.8 °C 1018.8 hPa Calm     69.7% 0 mm 58 W/m2
18:44 22.6 °C 16.8 °C 1018.8 hPa Calm     69.9% 0 mm 51 W/m2
18:49 22.5 °C 16.8 °C 1018.8 hPa Calm     70.3% 0 mm 49 W/m2
18:54 22.4 °C 16.9 °C 1018.8 hPa Calm     71% 0 mm 44 W/m2
18:59 22.4 °C 17 °C 1018.8 hPa East 0.2 km/h 3.2 km/h 71.2% 0 mm 40 W/m2
19:04 22.4 °C 17.1 °C 1018.8 hPa Calm   3.2 km/h 72% 0 mm 35 W/m2
19:09 22.3 °C 17 °C 1018.8 hPa Calm   1.6 km/h 71.7% 0 mm 26 W/m2
19:14 22.3 °C 17.1 °C 1018.8 hPa Calm   1.6 km/h 72% 0 mm 25 W/m2
19:19 22.3 °C 17 °C 1018.8 hPa Calm   1.6 km/h 72% 0 mm 25 W/m2
19:24 22.3 °C 17.2 °C 1018.8 hPa Calm   1.6 km/h 72.8% 0 mm 21 W/m2
19:29 22.2 °C 17.2 °C 1018.8 hPa Calm   1.6 km/h 73% 0 mm 18 W/m2
19:34 22.2 °C 17.3 °C 1018.8 hPa Calm   1.6 km/h 73.9% 0 mm 12 W/m2
19:39 22.1 °C 17.4 °C 1019.2 hPa Calm     74.6% 0 mm 9 W/m2
19:44 22.1 °C 17.4 °C 1019.2 hPa Calm     75% 0 mm 7 W/m2
19:49 22 °C 17.3 °C 1019.2 hPa Calm     75% 0 mm 5 W/m2
19:54 21.9 °C 17.3 °C 1019.2 hPa Calm     75% 0 mm 0 W/m2
19:59 21.9 °C 17.4 °C 1019.2 hPa Calm     75.6% 0 mm 0 W/m2
20:00 21.8 °C 17.2 °C 1019.2 hPa Calm     75% 0 mm 0 W/m2
20:09 21.8 °C 17.2 °C 1019.2 hPa Calm     75% 0 mm 0 W/m2
20:14 21.7 °C 17.3 °C 1019.5 hPa Calm     75.8% 0 mm 0 W/m2
20:19 21.7 °C 17.3 °C 1019.5 hPa Calm     76% 0 mm 0 W/m2
20:24 21.7 °C 17.3 °C 1019.5 hPa Calm     76% 0 mm 0 W/m2
20:29 21.7 °C 17.2 °C 1019.5 hPa Calm     76% 0 mm 0 W/m2
20:34 21.6 °C 17.4 °C 1019.5 hPa Calm     76.8% 0 mm 0 W/m2
20:39 21.6 °C 17.4 °C 1019.5 hPa Calm     77% 0 mm 0 W/m2
20:44 21.6 °C 17.3 °C 1019.5 hPa Calm     77% 0 mm 0 W/m2
20:49 21.6 °C 17.3 °C 1019.5 hPa Calm     77% 0 mm 0 W/m2
20:54 21.5 °C 17.3 °C 1019.5 hPa Calm     77% 0 mm 0 W/m2
20:59 21.4 °C 17.4 °C 1019.5 hPa Calm     77.6% 0 mm 0 W/m2
21:04 21.4 °C 17.4 °C 1019.5 hPa Calm     78% 0 mm 0 W/m2
21:09 21.4 °C 17.4 °C 1019.5 hPa Calm     78% 0 mm 0 W/m2
21:14 21.4 °C 17.5 °C 1019.5 hPa Calm     78.5% 0 mm 0 W/m2
21:19 21.3 °C 17.6 °C 1019.5 hPa Calm     79% 0 mm 0 W/m2
21:24 21.3 °C 17.6 °C 1019.5 hPa Calm     79% 0 mm 0 W/m2
21:29 21.3 °C 17.5 °C 1019.5 hPa Calm     79% 0 mm 0 W/m2
21:34 21.3 °C 17.7 °C 1019.5 hPa Calm     79.8% 0 mm 0 W/m2
21:39 21.2 °C 17.7 °C 1019.5 hPa Calm     80.5% 0 mm 0 W/m2
21:44 21.2 °C 17.8 °C 1019.9 hPa Calm     81.5% 0 mm 0 W/m2
21:49 21.1 °C 17.9 °C 1019.9 hPa Calm     82.2% 0 mm 0 W/m2
21:54 20.9 °C 17.9 °C 1019.9 hPa Calm     83% 0 mm 0 W/m2
21:59 20.8 °C 17.9 °C 1019.9 hPa Calm     83.5% 0 mm 0 W/m2
22:04 20.7 °C 17.9 °C 1019.9 hPa Calm     84% 0 mm 0 W/m2
22:09 20.6 °C 18 °C 1019.9 hPa Calm     84.8% 0 mm 0 W/m2
22:14 20.6 °C 17.9 °C 1019.9 hPa Calm     85% 0 mm 0 W/m2
22:19 20.5 °C 18 °C 1019.9 hPa Calm     85.6% 0 mm 0 W/m2
22:24 20.4 °C 18 °C 1019.9 hPa Calm     86% 0 mm 0 W/m2
22:29 20.4 °C 18.2 °C 1019.9 hPa Calm     86.9% 0 mm 0 W/m2
22:34 20.4 °C 18.2 °C 1019.5 hPa Calm     87% 0 mm 0 W/m2
22:39 20.3 °C 18.1 °C 1019.5 hPa Calm     87% 0 mm 0 W/m2
22:44 20.3 °C 18.1 °C 1019.5 hPa Calm     87% 0 mm 0 W/m2
22:49 20.3 °C 18.1 °C 1019.5 hPa Calm     87.5% 0 mm 0 W/m2
22:54 20.2 °C 18.2 °C 1019.5 hPa Calm     88% 0 mm 0 W/m2
22:59 20.2 °C 18.2 °C 1019.5 hPa Calm     88% 0 mm 0 W/m2
23:04 20.2 °C 18.1 °C 1019.2 hPa Calm     88% 0 mm 0 W/m2
23:09 20.1 °C 18.1 °C 1019.2 hPa Calm     88% 0 mm 0 W/m2
23:14 20.1 °C 18.1 °C 1019.2 hPa Calm     88% 0 mm 0 W/m2
23:19 20.1 °C 18.1 °C 1019.2 hPa Calm     88% 0 mm 0 W/m2
23:24 20.1 °C 18.1 °C 1019.2 hPa Calm     88.5% 0 mm 0 W/m2
23:29 20.1 °C 18.2 °C 1019.2 hPa Calm     89% 0 mm 0 W/m2
23:34 20.1 °C 18.2 °C 1019.2 hPa Calm     89% 0 mm 0 W/m2
23:39 20.1 °C 18.2 °C 1019.2 hPa Calm     89% 0 mm 0 W/m2
23:44 20 °C 18.1 °C 1019.2 hPa Calm     89% 0 mm 0 W/m2
23:49 19.9 °C 17.9 °C 1019.2 hPa East 1.1 km/h 6.4 km/h 88% 0 mm 0 W/m2
23:54 19.9 °C 17.7 °C 1019.2 hPa East 0.8 km/h 6.4 km/h 87.3% 0 mm 0 W/m2
23:59 19.8 °C 17.6 °C 1018.8 hPa East 0.3 km/h 6.4 km/h 87% 0 mm 0 W/m2
Hartford County Weather
Compliments of Weather Underground - 2 mb